Caiaponia, Brazil
Current Conditions -  °F | °C
As of 9:00 AM on Wednesday 26 Nov 2014 (Local Time) from SBGO Reporting Station
Broken Clouds Broken Clouds  
Wind Chill: 72°   Ceiling: 8000
Heat Index: 72°   Visibility: 6mi
Dew Point: 66°   Wind: 6mph
Humidity: 83%   Direction: 20°NNE
Pressure: 29.97"   Gusts: NA
Location:  16.96°S, 51.81°W
Report Text: SBGO 261100Z 02005KT 9999 FEW015 BKN080 22/19 Q1015
Loading
Personal Weather Stations






























Interactive Weather Map New forecast layout! Learn more

10-Day Weather Forecast

Advertisements
Track Severe Weather on mobile